Time;durP1;ratioP1;P1;durP2;ratioP2;P2;SDS_P1;SDS_P2;PMS_P1;PMS_P2;Temp;Humidity;BMP_temperature;BMP_pressure;BME280_temperature;BME280_humidity;BME280_pressure;Samples;Min_cycle;Max_cycle;Signal;HPM_P1;HPM_P2
2023/04/27 00:02:10;;;;;;;5.80;4.47;;;;;;;2.53;100.00;101920.16;4969386;28;20093;-64
2023/04/27 00:04:36;;;;;;;6.90;4.90;;;;;;;2.50;100.00;101918.25;4969246;28;20491;-63
2023/04/27 00:07:01;;;;;;;6.73;4.90;;;;;;;2.50;100.00;101927.59;4977104;28;20030;-63
2023/04/27 00:09:27;;;;;;;6.77;4.87;;;;;;;2.49;100.00;101925.78;4987453;28;20027;-63
2023/04/27 00:11:52;;;;;;;5.13;4.63;;;;;;;2.47;100.00;101915.44;4978854;28;20051;-63
2023/04/27 00:14:17;;;;;;;7.40;5.13;;;;;;;2.46;100.00;101918.78;4983546;28;20030;-63
2023/04/27 00:16:42;;;;;;;5.47;4.50;;;;;;;2.42;100.00;101924.41;4987675;28;20053;-62
2023/04/27 00:19:08;;;;;;;7.50;5.30;;;;;;;2.37;100.00;101920.56;4973282;28;20186;-63
2023/04/27 00:21:34;;;;;;;6.60;4.97;;;;;;;2.31;100.00;101926.06;4968521;28;20380;-62
2023/04/27 00:23:59;;;;;;;6.53;4.80;;;;;;;2.24;100.00;101921.22;4969215;28;20054;-63
2023/04/27 00:26:25;;;;;;;7.37;5.10;;;;;;;2.18;100.00;101913.91;4968662;28;20056;-63
2023/04/27 00:28:51;;;;;;;6.10;4.73;;;;;;;2.11;100.00;101922.75;4971679;28;20031;-63
2023/04/27 00:31:17;;;;;;;5.57;4.30;;;;;;;2.10;100.00;101927.72;4971806;28;20379;-63
2023/04/27 00:33:43;;;;;;;8.03;5.40;;;;;;;2.04;100.00;101921.34;4972026;28;20491;-63
2023/04/27 00:36:08;;;;;;;8.83;5.20;;;;;;;2.03;100.00;101924.63;4980521;28;20058;-62
2023/04/27 00:38:33;;;;;;;7.33;5.10;;;;;;;2.01;100.00;101923.66;4990440;28;20026;-63
2023/04/27 00:41:03;;;;;;;8.33;5.33;;;;;;;2.01;100.00;101926.19;4990532;28;20137;-62
2023/04/27 00:43:28;;;;;;;7.60;5.70;;;;;;;2.00;100.00;101923.47;4988383;28;20476;-63
2023/04/27 00:45:54;;;;;;;6.80;4.57;;;;;;;1.99;100.00;101921.72;4980362;28;20037;-63
2023/04/27 00:48:19;;;;;;;8.93;5.17;;;;;;;1.95;100.00;101920.56;4990239;28;20074;-62
2023/04/27 00:50:45;;;;;;;7.10;4.70;;;;;;;1.93;100.00;101927.19;4991014;28;20018;-63
2023/04/27 00:53:10;;;;;;;8.63;5.30;;;;;;;1.89;100.00;101925.16;4988574;28;20478;-63
2023/04/27 00:55:36;;;;;;;10.33;5.13;;;;;;;1.85;100.00;101918.88;4979582;28;20239;-63
2023/04/27 00:58:01;;;;;;;8.73;5.23;;;;;;;1.81;100.00;101921.94;4975807;28;20055;-63
2023/04/27 01:00:26;;;;;;;8.23;4.60;;;;;;;1.77;100.00;101918.22;4971897;28;20114;-63
2023/04/27 01:02:52;;;;;;;7.90;4.97;;;;;;;1.77;100.00;101919.88;4972385;28;20062;-63
2023/04/27 01:05:18;;;;;;;6.93;5.50;;;;;;;1.72;100.00;101922.06;4971809;28;20076;-62
2023/04/27 01:07:43;;;;;;;5.43;4.93;;;;;;;1.68;100.00;101913.22;4983885;28;20022;-62
2023/04/27 01:10:09;;;;;;;6.47;4.50;;;;;;;1.68;100.00;101917.44;4990597;28;20092;-64
2023/04/27 01:12:34;;;;;;;8.03;5.07;;;;;;;1.66;100.00;101922.41;4989098;28;20026;-63
2023/04/27 01:15:00;;;;;;;7.40;4.80;;;;;;;1.64;100.00;101915.38;4971468;28;20500;-63
2023/04/27 01:17:25;;;;;;;5.07;4.57;;;;;;;1.60;100.00;101916.75;4970447;28;20046;-64
2023/04/27 01:19:54;;;;;;;6.50;4.70;;;;;;;1.58;100.00;101926.00;4971603;28;20050;-63
2023/04/27 01:22:20;;;;;;;7.50;4.67;;;;;;;1.56;100.00;101919.84;4985418;28;20022;-63
2023/04/27 01:24:45;;;;;;;7.50;5.67;;;;;;;1.53;100.00;101925.56;4982236;28;20034;-63
2023/04/27 01:27:12;;;;;;;7.23;5.23;;;;;;;1.49;100.00;101926.09;4970885;28;20031;-62
2023/04/27 01:29:37;;;;;;;6.30;5.47;;;;;;;1.49;100.00;101933.75;4970999;28;20551;-63
2023/04/27 01:32:03;;;;;;;7.27;5.03;;;;;;;1.47;100.00;101935.28;4971008;28;20023;-63
2023/04/27 01:34:28;;;;;;;6.77;5.30;;;;;;;1.46;100.00;101930.03;4970818;28;20073;-62
2023/04/27 01:36:53;;;;;;;7.90;6.60;;;;;;;1.42;100.00;101922.09;4971567;28;20051;-63
2023/04/27 01:39:18;;;;;;;6.10;4.87;;;;;;;1.40;100.00;101926.16;4970325;28;20231;-62
2023/04/27 01:41:44;;;;;;;8.50;5.30;;;;;;;1.37;100.00;101923.34;4971359;28;20030;-62
2023/04/27 01:44:09;;;;;;;6.33;5.13;;;;;;;1.37;100.00;101922.47;4965114;28;20030;-64
2023/04/27 01:46:34;;;;;;;6.40;5.50;;;;;;;1.31;100.00;101913.47;4970900;28;20022;-63
2023/04/27 01:49:00;;;;;;;7.17;5.87;;;;;;;1.30;100.00;101918.47;4971107;28;20027;-62
2023/04/27 01:51:26;;;;;;;8.60;5.50;;;;;;;1.27;100.00;101916.56;4970896;28;20062;-63
2023/04/27 01:53:51;;;;;;;6.40;5.70;;;;;;;1.28;100.00;101914.88;4971253;28;20027;-64
2023/04/27 01:56:17;;;;;;;6.20;4.70;;;;;;;1.24;100.00;101912.84;4971564;28;20027;-63
2023/04/27 01:58:42;;;;;;;7.03;4.93;;;;;;;1.23;100.00;101913.59;4970546;28;20130;-63
2023/04/27 02:01:07;;;;;;;7.10;5.27;;;;;;;1.18;100.00;101909.00;4972515;28;20043;-64
2023/04/27 02:03:33;;;;;;;6.97;5.93;;;;;;;1.15;100.00;101912.94;4971596;28;20627;-64
2023/04/27 02:05:58;;;;;;;6.43;5.67;;;;;;;1.12;100.00;101918.66;4971165;28;20077;-64
2023/04/27 02:08:23;;;;;;;8.30;5.33;;;;;;;1.08;100.00;101914.03;4989550;28;20026;-64
2023/04/27 02:10:49;;;;;;;7.20;5.47;;;;;;;1.04;100.00;101911.97;4988695;28;20019;-64
2023/04/27 02:13:14;;;;;;;8.43;5.67;;;;;;;1.03;100.00;101905.06;4989008;28;20022;-63
2023/04/27 02:15:39;;;;;;;8.87;5.67;;;;;;;1.01;100.00;101902.38;4988421;28;20101;-63
2023/04/27 02:18:05;;;;;;;7.50;5.97;;;;;;;0.99;100.00;101903.91;4976320;28;20073;-64
2023/04/27 02:20:31;;;;;;;7.77;5.80;;;;;;;0.97;100.00;101904.53;4987569;28;20022;-62
2023/04/27 02:22:56;;;;;;;7.83;5.63;;;;;;;0.93;100.00;101896.63;4988401;28;20026;-63
2023/04/27 02:25:21;;;;;;;7.30;5.67;;;;;;;0.94;100.00;101898.41;4985439;28;20340;-62
2023/04/27 02:27:47;;;;;;;6.10;5.50;;;;;;;0.92;100.00;101899.91;4987667;28;20085;-64
2023/04/27 02:30:12;;;;;;;8.10;6.10;;;;;;;0.91;100.00;101894.69;4987369;28;20015;-63
2023/04/27 02:32:38;;;;;;;6.07;5.47;;;;;;;0.88;100.00;101890.19;4988299;28;20026;-63
2023/04/27 02:35:04;;;;;;;9.43;5.47;;;;;;;0.83;100.00;101881.22;4986829;28;20178;-63
2023/04/27 02:37:30;;;;;;;10.30;6.17;;;;;;;0.81;100.00;101886.19;4988167;28;20026;-63
2023/04/27 02:39:56;;;;;;;6.63;5.70;;;;;;;0.79;100.00;101890.28;4987678;28;20035;-63
2023/04/27 02:42:21;;;;;;;9.10;5.93;;;;;;;0.78;100.00;101885.94;4963153;28;20479;-63
2023/04/27 02:44:46;;;;;;;9.30;6.20;;;;;;;0.77;100.00;101885.81;4987766;28;20038;-64
2023/04/27 02:47:12;;;;;;;10.23;6.03;;;;;;;0.75;100.00;101883.13;4988440;28;20065;-63
2023/04/27 02:49:37;;;;;;;11.00;5.80;;;;;;;0.75;100.00;101882.22;4987382;28;20053;-63
2023/04/27 02:52:03;;;;;;;7.37;5.17;;;;;;;0.75;100.00;101879.66;4987652;28;20046;-63
2023/04/27 02:54:28;;;;;;;8.50;5.63;;;;;;;0.73;100.00;101893.94;4987404;28;20022;-63
2023/04/27 02:56:54;;;;;;;8.50;6.10;;;;;;;0.71;100.00;101887.06;4987945;28;20030;-63
2023/04/27 02:59:19;;;;;;;8.37;6.13;;;;;;;0.72;100.00;101895.59;4987100;28;20394;-63
2023/04/27 03:01:45;;;;;;;6.53;5.70;;;;;;;0.70;100.00;101892.91;4987767;28;20033;-63
2023/04/27 03:04:12;;;;;;;10.30;5.80;;;;;;;0.69;100.00;101893.69;4987644;28;20033;-63
2023/04/27 03:06:38;;;;;;;11.03;6.17;;;;;;;0.66;100.00;101888.31;4970035;28;20792;-63
2023/04/27 03:09:04;;;;;;;9.40;6.20;;;;;;;0.66;100.00;101888.31;4980987;28;20065;-62
2023/04/27 03:11:29;;;;;;;10.63;6.57;;;;;;;0.65;100.00;101885.63;4988089;28;20011;-62
2023/04/27 03:13:55;;;;;;;9.17;5.93;;;;;;;0.61;100.00;101881.91;4988179;28;20018;-63
2023/04/27 03:16:20;;;;;;;8.30;6.40;;;;;;;0.58;100.00;101885.06;4976632;28;20050;-63
2023/04/27 03:18:45;;;;;;;8.73;7.03;;;;;;;0.56;100.00;101878.91;4969165;28;20369;-63
2023/04/27 03:21:11;;;;;;;10.07;7.23;;;;;;;0.55;100.00;101881.34;4969498;28;20027;-63
2023/04/27 03:23:38;;;;;;;10.33;7.07;;;;;;;0.53;100.00;101890.50;4969658;28;20467;-63
2023/04/27 03:26:07;;;;;;;12.03;6.97;;;;;;;0.52;100.00;101886.16;4969430;28;20023;-64
2023/04/27 03:28:33;;;;;;;11.73;6.80;;;;;;;0.51;100.00;101889.47;4969304;28;20110;-63
2023/04/27 03:30:58;;;;;;;8.60;6.27;;;;;;;0.52;100.00;101889.59;4968623;28;20018;-63
2023/04/27 03:33:25;;;;;;;8.77;6.43;;;;;;;0.51;100.00;101892.00;4968970;28;20026;-63
2023/04/27 03:35:57;;;;;;;11.53;6.60;;;;;;;0.52;100.00;101898.91;4969011;28;20027;-64
2023/04/27 03:38:24;;;;;;;9.97;6.73;;;;;;;0.50;100.00;101892.78;4968774;28;20023;-63
2023/04/27 03:40:50;;;;;;;11.60;6.97;;;;;;;0.49;100.00;101899.53;4968306;28;20105;-63
2023/04/27 03:43:15;;;;;;;8.73;6.80;;;;;;;0.47;100.00;101907.03;4968651;28;20050;-63
2023/04/27 03:45:40;;;;;;;9.43;6.40;;;;;;;0.46;100.00;101899.25;4968927;28;20037;-63
2023/04/27 03:48:06;;;;;;;10.80;7.10;;;;;;;0.45;100.00;101895.81;4969201;28;20118;-64
2023/04/27 03:50:31;;;;;;;9.13;6.10;;;;;;;0.44;100.00;101901.69;4969195;28;20109;-63
2023/04/27 03:52:56;;;;;;;12.27;6.93;;;;;;;0.43;100.00;101904.97;4968687;28;20022;-63
2023/04/27 03:55:22;;;;;;;8.70;6.90;;;;;;;0.40;100.00;101904.69;4969198;28;20058;-63
2023/04/27 03:57:47;;;;;;;8.17;6.93;;;;;;;0.38;100.00;101906.22;4969045;28;20448;-64
2023/04/27 04:00:13;;;;;;;10.83;7.30;;;;;;;0.36;100.00;101905.16;4968570;28;20133;-63
2023/04/27 04:02:39;;;;;;;11.73;6.80;;;;;;;0.34;100.00;101909.25;4969933;28;20045;-63
2023/04/27 04:05:04;;;;;;;8.27;6.47;;;;;;;0.34;100.00;101907.59;4971752;28;20027;-63
2023/04/27 04:07:30;;;;;;;9.57;6.77;;;;;;;0.38;100.00;101906.22;4971200;28;20415;-63
2023/04/27 04:09:55;;;;;;;8.37;7.17;;;;;;;0.39;100.00;101918.22;4971384;28;20027;-64
2023/04/27 04:12:23;;;;;;;9.63;6.43;;;;;;;0.37;100.00;101906.97;4971706;28;20533;-63
2023/04/27 04:14:49;;;;;;;7.23;6.37;;;;;;;0.34;100.00;101910.13;4970172;28;20034;-62
2023/04/27 04:17:14;;;;;;;9.03;6.67;;;;;;;0.32;100.00;101906.56;4971440;28;20058;-63
2023/04/27 04:19:40;;;;;;;8.13;6.77;;;;;;;0.31;100.00;101908.97;4978195;28;20466;-63
2023/04/27 04:22:05;;;;;;;8.23;6.37;;;;;;;0.27;100.00;101907.78;4991549;28;20112;-63
2023/04/27 04:24:30;;;;;;;9.70;7.03;;;;;;;0.26;100.00;101918.75;4989897;28;20030;-63
2023/04/27 04:26:57;;;;;;;12.03;7.20;;;;;;;0.23;100.00;101911.69;4991804;28;20053;-63
2023/04/27 04:29:23;;;;;;;10.33;7.53;;;;;;;0.22;100.00;101927.78;4991159;28;20027;-63
2023/04/27 04:31:48;;;;;;;9.33;7.60;;;;;;;0.21;100.00;101925.09;4990682;28;20049;-64
2023/04/27 04:34:14;;;;;;;8.90;7.23;;;;;;;0.21;100.00;101923.44;4990740;28;20134;-62
2023/04/27 04:36:40;;;;;;;11.37;7.27;;;;;;;0.20;100.00;101921.63;4991203;28;20107;-63
2023/04/27 04:39:05;;;;;;;9.57;6.87;;;;;;;0.21;100.00;101925.09;4990404;28;20486;-62
2023/04/27 04:41:31;;;;;;;11.77;7.33;;;;;;;0.21;100.00;101933.63;4990992;28;20034;-62
2023/04/27 04:43:57;;;;;;;9.43;6.90;;;;;;;0.25;100.00;101933.91;4990201;28;20081;-62
2023/04/27 04:46:24;;;;;;;12.23;7.60;;;;;;;0.27;100.00;101937.50;4978906;28;20518;-64
2023/04/27 04:48:50;;;;;;;13.60;7.40;;;;;;;0.26;100.00;101941.69;4978319;28;20038;-64
2023/04/27 04:51:16;;;;;;;10.83;8.47;;;;;;;0.29;100.00;101941.97;4978367;28;20519;-64
2023/04/27 04:53:41;;;;;;;9.03;7.33;;;;;;;0.33;100.00;101943.16;4972166;28;20433;-63
2023/04/27 04:56:08;;;;;;;13.87;8.03;;;;;;;0.37;100.00;101940.13;4971864;28;20142;-64
2023/04/27 04:58:34;;;;;;;10.57;7.53;;;;;;;0.40;100.00;101940.41;4971946;28;20027;-63
2023/04/27 05:00:59;;;;;;;10.90;7.87;;;;;;;0.45;100.00;101943.41;4971775;28;20035;-64
2023/04/27 05:03:24;;;;;;;9.87;7.63;;;;;;;0.53;100.00;101938.97;4971421;28;20557;-63
2023/04/27 05:05:50;;;;;;;11.17;7.37;;;;;;;0.58;100.00;101937.72;4971833;28;20027;-63
2023/04/27 05:08:16;;;;;;;9.83;8.10;;;;;;;0.65;100.00;101941.75;4971496;28;20115;-64
2023/04/27 05:10:41;;;;;;;9.97;7.97;;;;;;;0.72;100.00;101944.06;4972076;28;20035;-65
2023/04/27 05:13:06;;;;;;;11.67;7.97;;;;;;;0.77;100.00;101945.41;4972589;28;20385;-63
2023/04/27 05:15:31;;;;;;;12.10;8.50;;;;;;;0.85;100.00;101945.19;4971514;28;20070;-64
2023/04/27 05:17:57;;;;;;;10.50;8.57;;;;;;;0.92;100.00;101948.41;4972610;28;20038;-63
2023/04/27 05:20:22;;;;;;;11.53;8.23;;;;;;;1.01;100.00;101950.03;4971620;28;20490;-63
2023/04/27 05:22:47;;;;;;;11.87;7.37;;;;;;;1.08;100.00;101954.88;4972721;28;20457;-63
2023/04/27 05:25:12;;;;;;;10.87;8.23;;;;;;;1.15;100.00;101946.13;4971797;28;20034;-63
2023/04/27 05:27:38;;;;;;;11.80;8.63;;;;;;;1.19;100.00;101949.06;4973361;28;20205;-63
2023/04/27 05:30:03;;;;;;;14.30;8.73;;;;;;;1.28;100.00;101948.06;4971548;28;20027;-63
2023/04/27 05:32:29;;;;;;;12.87;8.40;;;;;;;1.32;100.00;101950.16;4973457;28;20487;-63
2023/04/27 05:34:54;;;;;;;13.93;9.43;;;;;;;1.37;100.00;101948.91;4972561;28;20105;-63
2023/04/27 05:37:20;;;;;;;11.77;9.63;;;;;;;1.44;100.00;101946.13;4973832;28;20062;-63
2023/04/27 05:39:45;;;;;;;10.40;8.70;;;;;;;1.53;100.00;101945.13;4972481;28;20031;-63
2023/04/27 05:42:10;;;;;;;13.57;8.87;;;;;;;1.65;100.00;101958.97;4973495;28;20019;-64
2023/04/27 05:44:35;;;;;;;15.03;10.37;;;;;;;1.78;100.00;101957.47;4971945;28;20443;-63
2023/04/27 05:47:01;;;;;;;10.77;7.97;;;;;;;1.89;100.00;101956.72;4973697;28;20030;-63
2023/04/27 05:49:26;;;;;;;12.37;8.70;;;;;;;2.00;100.00;101957.63;4972884;28;20416;-62
2023/04/27 05:51:52;;;;;;;14.30;8.00;;;;;;;2.13;100.00;101968.91;4973848;28;20057;-63
2023/04/27 05:54:17;;;;;;;9.83;7.30;;;;;;;2.26;100.00;101965.72;4972635;28;20113;-63
2023/04/27 05:56:43;;;;;;;9.53;7.87;;;;;;;2.38;100.00;101966.75;4973273;28;20122;-63
2023/04/27 05:59:08;;;;;;;7.73;6.33;;;;;;;2.50;100.00;101968.56;4972104;28;20471;-64
2023/04/27 06:01:34;;;;;;;10.27;7.17;;;;;;;2.63;100.00;101971.34;4974152;28;20033;-63
2023/04/27 06:04:00;;;;;;;9.10;7.67;;;;;;;2.77;100.00;101958.78;4972511;28;20030;-63
2023/04/27 06:06:26;;;;;;;8.07;6.43;;;;;;;2.92;100.00;101958.25;4976204;28;20141;-63
2023/04/27 06:08:52;;;;;;;8.30;6.17;;;;;;;3.00;100.00;101963.22;4978778;28;20446;-63
2023/04/27 06:11:17;;;;;;;8.50;5.60;;;;;;;3.10;100.00;101970.00;4987249;28;20089;-64
2023/04/27 06:13:42;;;;;;;8.33;6.57;;;;;;;3.23;100.00;101971.88;4989385;28;20045;-64
2023/04/27 06:16:07;;;;;;;9.27;6.40;;;;;;;3.32;100.00;101966.59;4988010;28;20073;-63
2023/04/27 06:18:33;;;;;;;7.77;6.07;;;;;;;3.49;100.00;101967.00;4988380;28;20037;-64
2023/04/27 06:21:00;;;;;;;7.83;6.30;;;;;;;3.72;100.00;101961.13;4987766;28;20066;-63
2023/04/27 06:23:26;;;;;;;8.23;6.10;;;;;;;3.88;100.00;101959.78;4988833;28;20034;-63
2023/04/27 06:25:51;;;;;;;10.23;5.20;;;;;;;4.01;100.00;101956.47;4987316;28;20387;-64
2023/04/27 06:28:16;;;;;;;7.97;5.83;;;;;;;4.25;100.00;101960.78;4987638;28;20030;-64
2023/04/27 06:30:41;;;;;;;7.13;6.20;;;;;;;4.36;100.00;101964.19;4987728;28;20022;-63
2023/04/27 06:33:07;;;;;;;8.17;5.17;;;;;;;4.48;100.00;101961.66;4988809;28;20042;-64
2023/04/27 06:35:33;;;;;;;8.13;5.68;;;;;;;4.42;100.00;101959.53;4987895;28;20030;-63
2023/04/27 06:37:58;;;;;;;8.40;5.77;;;;;;;4.59;100.00;101955.63;4988921;28;20037;-64
2023/04/27 06:40:25;;;;;;;8.57;5.70;;;;;;;4.63;100.00;101959.31;4987270;28;20173;-63
2023/04/27 06:42:50;;;;;;;6.50;5.10;;;;;;;4.74;100.00;101963.59;4988530;28;20041;-63
2023/04/27 06:45:16;;;;;;;11.30;5.67;;;;;;;4.96;100.00;101962.63;4987557;28;20364;-63
2023/04/27 06:47:41;;;;;;;8.20;5.00;;;;;;;5.09;100.00;101955.78;4988183;28;20026;-63
2023/04/27 06:50:06;;;;;;;6.90;4.90;;;;;;;5.24;100.00;101958.56;4987822;28;20644;-63
2023/04/27 06:52:32;;;;;;;13.20;5.43;;;;;;;5.36;99.64;101961.13;4987060;28;20112;-63
2023/04/27 06:54:58;;;;;;;7.28;5.63;;;;;;;5.52;99.31;101958.84;4987753;28;20105;-63
2023/04/27 06:57:23;;;;;;;7.80;4.88;;;;;;;5.64;96.86;101957.94;4987873;28;20308;-63
2023/04/27 06:59:48;;;;;;;7.95;5.05;;;;;;;5.82;96.00;101957.44;4987420;28;20081;-64
2023/04/27 07:02:13;;;;;;;6.20;4.85;;;;;;;6.03;96.43;101959.72;4988370;28;20387;-63
2023/04/27 07:04:39;;;;;;;7.82;5.18;;;;;;;6.32;94.83;101960.81;4984185;28;20077;-63
2023/04/27 07:07:04;;;;;;;7.40;5.43;;;;;;;6.55;94.32;101956.34;4979387;28;20022;-64
2023/04/27 07:09:29;;;;;;;9.18;6.55;;;;;;;6.65;92.02;101956.16;4973127;28;20034;-63
2023/04/27 07:11:57;;;;;;;7.43;5.47;;;;;;;6.92;92.85;101956.19;4969847;28;20027;-63
2023/04/27 07:14:23;;;;;;;7.97;4.90;;;;;;;7.21;92.56;101954.56;4968159;28;20318;-63
2023/04/27 07:16:48;;;;;;;10.35;5.75;;;;;;;7.36;89.22;101948.59;4969384;28;20047;-63
2023/04/27 07:19:13;;;;;;;8.73;5.75;;;;;;;7.49;85.82;101941.63;4981362;28;20050;-63
2023/04/27 07:21:38;;;;;;;7.25;5.78;;;;;;;7.62;85.79;101951.94;4978364;28;20271;-64
2023/04/27 07:24:04;;;;;;;6.82;5.57;;;;;;;8.00;87.36;101949.91;4988389;28;20046;-63
2023/04/27 07:26:30;;;;;;;8.07;5.75;;;;;;;8.15;82.98;101949.94;4988245;28;20034;-63
2023/04/27 07:28:56;;;;;;;9.48;5.50;;;;;;;8.39;82.52;101957.38;4987211;28;20117;-63
2023/04/27 07:31:21;;;;;;;8.35;5.43;;;;;;;8.50;79.92;101951.94;4987653;28;20102;-63
2023/04/27 07:33:47;;;;;;;7.72;5.70;;;;;;;8.50;78.51;101947.66;4987557;28;20034;-63
2023/04/27 07:36:12;;;;;;;6.38;5.57;;;;;;;8.66;78.97;101951.16;4987848;28;20080;-64
2023/04/27 07:38:37;;;;;;;9.25;5.70;;;;;;;8.86;80.51;101954.91;4986371;28;20488;-64
2023/04/27 07:41:06;;;;;;;7.57;5.63;;;;;;;8.98;75.71;101952.09;4987109;28;20065;-64
2023/04/27 07:43:31;;;;;;;8.52;5.78;;;;;;;9.29;75.54;101955.50;4988119;28;20025;-65
2023/04/27 07:45:57;;;;;;;8.20;6.20;;;;;;;9.56;73.20;101957.84;4987880;28;20045;-64
2023/04/27 07:48:23;;;;;;;10.98;4.95;;;;;;;9.74;71.83;101954.44;4986997;28;20023;-64
2023/04/27 07:50:48;;;;;;;11.00;6.25;;;;;;;9.80;71.77;101946.13;4987418;28;20040;-64
2023/04/27 07:53:13;;;;;;;8.75;5.45;;;;;;;9.88;69.47;101950.00;4986238;28;20125;-63
2023/04/27 07:55:40;;;;;;;11.23;5.75;;;;;;;10.04;68.91;101956.88;4987408;28;20076;-63
2023/04/27 07:58:05;;;;;;;8.05;5.53;;;;;;;9.83;68.89;101954.94;4987464;28;20030;-63
2023/04/27 08:00:31;;;;;;;9.70;5.13;;;;;;;9.78;67.29;101948.63;4987711;28;20070;-64
2023/04/27 08:02:56;;;;;;;8.25;4.97;;;;;;;9.91;68.57;101944.09;4973441;28;20035;-63
2023/04/27 08:05:22;;;;;;;7.13;5.18;;;;;;;10.20;68.11;101947.28;4968224;28;20031;-64
2023/04/27 08:07:47;;;;;;;8.88;5.63;;;;;;;10.13;68.17;101945.22;4968417;28;20113;-63
2023/04/27 08:10:13;;;;;;;9.82;4.85;;;;;;;10.05;64.95;101950.91;4977102;28;20030;-63
2023/04/27 08:12:38;;;;;;;9.88;5.53;;;;;;;10.40;70.59;101939.66;4987345;28;20041;-64
2023/04/27 08:15:05;;;;;;;7.85;4.88;;;;;;;10.83;69.12;101951.28;4987824;28;20137;-63
2023/04/27 08:17:30;;;;;;;6.10;4.40;;;;;;;11.22;64.52;101952.25;4986558;28;20112;-64
2023/04/27 08:19:55;;;;;;;7.50;4.53;;;;;;;11.55;63.53;101949.44;4987969;28;20023;-64
2023/04/27 08:22:21;;;;;;;11.25;4.85;;;;;;;11.74;63.61;101958.06;4987551;28;20030;-63
2023/04/27 08:24:46;;;;;;;5.38;4.85;;;;;;;11.87;60.32;101952.59;4987597;28;20522;-64
2023/04/27 08:27:11;;;;;;;7.75;4.88;;;;;;;11.87;61.20;101946.53;4964022;28;20042;-64
2023/04/27 08:29:37;;;;;;;6.32;4.85;;;;;;;11.53;61.51;101951.97;4951688;28;20476;-64
2023/04/27 08:32:03;;;;;;;6.57;4.13;;;;;;;11.84;63.95;101935.97;4953579;28;20024;-63
2023/04/27 08:34:29;;;;;;;6.03;4.40;;;;;;;11.59;58.78;101940.06;4955677;28;20376;-64
2023/04/27 08:36:55;;;;;;;6.38;3.85;;;;;;;11.58;58.06;101933.13;4955194;28;20038;-63
2023/04/27 08:39:22;;;;;;;6.05;3.83;;;;;;;11.43;57.30;101929.00;4966597;28;20026;-63
2023/04/27 08:41:47;;;;;;;6.60;3.47;;;;;;;11.41;56.34;101930.63;4971111;28;20117;-64
2023/04/27 08:44:12;;;;;;;4.57;3.67;;;;;;;11.62;58.80;101922.06;4968182;28;20023;-64
2023/04/27 08:46:38;;;;;;;4.50;4.10;;;;;;;11.60;58.27;101915.91;4972258;28;20129;-64
2023/04/27 08:49:04;;;;;;;6.35;4.13;;;;;;;11.82;60.48;101922.06;4972264;28;20543;-64
2023/04/27 08:51:31;;;;;;;8.45;4.40;;;;;;;11.75;59.76;101916.59;4960640;28;20046;-64
2023/04/27 08:53:57;;;;;;;6.55;4.07;;;;;;;11.59;56.17;101925.41;4958972;28;20037;-64
2023/04/27 08:56:24;;;;;;;5.00;4.00;;;;;;;11.53;60.46;101931.19;4964313;28;20035;-64
2023/04/27 08:58:50;;;;;;;9.52;4.45;;;;;;;11.75;59.07;101921.78;4962750;28;20046;-63
2023/04/27 09:01:16;;;;;;;6.80;3.97;;;;;;;11.88;57.43;101928.41;4980604;28;20360;-64
2023/04/27 09:03:42;;;;;;;4.78;3.10;;;;;;;11.97;55.89;101933.13;4972304;28;20094;-64
2023/04/27 09:06:07;;;;;;;5.78;3.95;;;;;;;11.85;55.84;101932.59;4972866;28;20039;-64
2023/04/27 09:08:46;;;;;;;4.65;3.97;;;;;;;11.45;53.44;101931.66;4957907;28;20126;-64
2023/04/27 09:11:26;;;;;;;7.90;3.88;;;;;;;11.61;55.18;101930.66;4957813;28;20061;-64
2023/04/27 09:13:51;;;;;;;9.13;3.87;;;;;;;11.60;53.11;101927.16;4958425;28;20039;-63
2023/04/27 09:16:23;;;;;;;6.07;3.75;;;;;;;11.72;55.61;101923.34;4970964;28;20375;-64
2023/04/27 09:18:48;;;;;;;4.75;3.65;;;;;;;11.86;55.10;101929.16;4971654;28;20290;-63
2023/04/27 09:21:25;;;;;;;6.07;3.90;;;;;;;11.85;54.49;101929.97;4980028;28;20529;-64
2023/04/27 09:23:50;;;;;;;5.72;4.28;;;;;;;11.95;54.11;101923.47;4972385;28;20038;-64
2023/04/27 09:26:20;;;;;;;4.18;3.67;;;;;;;11.99;51.81;101925.38;4968720;28;20440;-64
2023/04/27 09:28:48;;;;;;;6.90;4.47;;;;;;;11.89;52.64;101924.97;4955863;28;20043;-64
2023/04/27 09:31:13;;;;;;;6.07;4.22;;;;;;;12.10;54.07;101918.09;4959369;28;20023;-64
2023/04/27 09:33:38;;;;;;;5.72;4.07;;;;;;;11.87;49.57;101920.56;4957359;28;20031;-64
2023/04/27 09:36:05;;;;;;;4.35;3.63;;;;;;;12.08;55.67;101906.72;4958121;28;20405;-64
2023/04/27 09:38:31;;;;;;;5.10;3.65;;;;;;;12.29;53.34;101914.56;4960913;28;20142;-64
2023/04/27 09:40:58;;;;;;;7.22;3.28;;;;;;;12.38;51.91;101915.78;4965426;28;20038;-64
2023/04/27 09:43:26;;;;;;;9.43;3.80;;;;;;;12.35;49.04;101914.84;4961080;28;20399;-64
2023/04/27 09:45:52;;;;;;;5.38;3.40;;;;;;;12.16;49.51;101905.34;4960303;28;20038;-64
2023/04/27 09:48:20;;;;;;;5.13;3.13;;;;;;;12.11;49.03;101909.47;4964499;28;20035;-64
2023/04/27 09:50:47;;;;;;;4.45;3.15;;;;;;;11.95;47.21;101908.78;4959205;28;20362;-64
2023/04/27 09:53:19;;;;;;;5.00;3.80;;;;;;;11.98;50.39;101911.50;4962745;28;20111;-64
2023/04/27 09:56:19;;;;;;;5.65;3.40;;;;;;;12.13;49.17;101898.34;4964882;28;20126;-64
2023/04/27 09:59:09;;;;;;;3.80;2.70;;;;;;;12.24;46.98;101901.38;4961361;28;20034;-64
2023/04/27 10:01:50;;;;;;;6.20;3.72;;;;;;;12.17;48.17;101901.94;4971007;28;20046;-64
2023/04/27 10:04:33;;;;;;;7.28;4.10;;;;;;;12.27;50.14;101897.16;4959568;28;20031;-64
2023/04/27 10:07:14;;;;;;;4.22;3.83;;;;;;;12.32;50.79;101898.22;4959144;28;20110;-64
2023/04/27 10:09:45;;;;;;;6.53;5.20;;;;;;;11.92;47.70;101906.06;4955496;28;20030;-64
2023/04/27 10:12:19;;;;;;;6.60;4.50;;;;;;;11.98;51.13;101895.91;4959586;28;20042;-64
2023/04/27 10:14:51;;;;;;;5.97;4.10;;;;;;;12.06;51.03;101892.75;4955497;28;20035;-64
2023/04/27 10:17:16;;;;;;;4.78;4.10;;;;;;;12.00;48.35;101890.78;4953739;28;20069;-64
2023/04/27 10:19:53;;;;;;;5.25;4.28;;;;;;;12.08;51.45;101889.44;4950642;28;20027;-64
2023/04/27 10:22:19;;;;;;;5.50;4.15;;;;;;;12.26;52.54;101896.25;4954589;28;20114;-64
2023/04/27 10:24:50;;;;;;;4.85;4.13;;;;;;;12.42;54.52;101902.97;4965310;28;20061;-64
2023/04/27 10:27:21;;;;;;;;;;;;;;;12.56;52.50;101905.25;4962958;28;20035;-64
2023/04/27 10:29:47;;;;;;;4.63;3.85;;;;;;;12.40;48.66;101909.81;4961226;28;20045;-63
2023/04/27 10:32:23;;;;;;;4.07;3.67;;;;;;;12.49;50.17;101907.59;4960243;28;20130;-64
2023/04/27 10:35:02;;;;;;;7.32;4.45;;;;;;;12.43;47.32;101899.53;4969991;28;20123;-65
2023/04/27 10:37:40;;;;;;;5.50;4.32;;;;;;;12.48;48.64;101900.59;4959218;28;20487;-64
2023/04/27 10:40:09;;;;;;;7.45;5.50;;;;;;;12.56;48.71;101908.72;4966714;28;20067;-64
2023/04/27 10:42:34;;;;;;;7.45;4.93;;;;;;;12.47;48.82;101893.66;4964630;28;20035;-63
2023/04/27 10:45:00;;;;;;;6.50;4.10;;;;;;;12.58;50.29;101898.41;4975502;28;20082;-64
2023/04/27 10:47:39;;;;;;;4.82;3.60;;;;;;;12.64;47.93;101890.84;4963924;28;20587;-64
2023/04/27 10:50:10;;;;;;;5.05;4.30;;;;;;;12.58;45.06;101893.19;4974317;28;20380;-64
2023/04/27 10:52:35;;;;;;;5.60;4.30;;;;;;;12.20;43.75;101889.06;4960187;28;20126;-64
2023/04/27 10:55:12;;;;;;;7.20;4.78;;;;;;;11.99;44.50;101879.53;4970035;28;20132;-64
2023/04/27 10:57:45;;;;;;;5.80;4.10;;;;;;;11.75;45.02;101881.94;4958172;28;20089;-64
2023/04/27 11:00:13;;;;;;;9.00;4.45;;;;;;;11.89;46.33;101879.97;4961170;28;20039;-64
2023/04/27 11:02:38;;;;;;;6.55;4.65;;;;;;;11.85;45.58;101880.63;4956830;28;20387;-63
2023/04/27 11:05:16;;;;;;;6.50;4.38;;;;;;;12.06;48.24;101875.47;4961129;28;20037;-64
2023/04/27 11:07:41;;;;;;;4.93;4.20;;;;;;;12.21;47.06;101864.88;4965627;28;20126;-64
2023/04/27 11:10:07;;;;;;;4.93;4.43;;;;;;;12.41;47.45;101866.53;4961142;28;20104;-64
2023/04/27 11:12:33;;;;;;;5.72;3.92;;;;;;;12.50;46.19;101853.91;4960058;28;20050;-65
2023/04/27 11:14:58;;;;;;;5.13;4.18;;;;;;;12.55;43.87;101854.97;4957515;28;20455;-64
2023/04/27 11:17:28;;;;;;;5.50;3.67;;;;;;;12.60;45.19;101849.94;4951988;28;20391;-64
2023/04/27 11:19:53;;;;;;;4.13;3.78;;;;;;;12.79;46.35;101848.09;4957392;28;20035;-63
2023/04/27 11:22:19;;;;;;;5.07;4.30;;;;;;;12.99;46.11;101845.38;4960428;28;20554;-64